createdAt,value
2022-09-30T00:01:08.988Z,11.40
2022-09-30T00:03:38.480Z,12.17
2022-09-30T00:06:08.863Z,11.57
2022-09-30T00:08:37.456Z,12.50
2022-09-30T00:11:08.983Z,12.47
2022-09-30T00:13:38.483Z,13.37
2022-09-30T00:16:06.020Z,13.17
2022-09-30T00:18:33.537Z,12.90
2022-09-30T00:21:00.641Z,13.27
2022-09-30T00:23:27.506Z,13.97
2022-09-30T00:26:06.508Z,14.00
2022-09-30T00:28:34.192Z,13.43
2022-09-30T00:31:03.319Z,13.60
2022-09-30T00:33:30.087Z,12.97
2022-09-30T00:35:56.903Z,13.40
2022-09-30T00:38:23.834Z,12.10
2022-09-30T00:40:51.553Z,13.50
2022-09-30T00:43:41.218Z,13.37
2022-09-30T00:46:20.619Z,12.73
2022-09-30T00:48:53.834Z,12.40
2022-09-30T00:51:43.403Z,12.93
2022-09-30T00:54:16.763Z,13.80
2022-09-30T00:56:48.981Z,12.83
2022-09-30T00:59:21.672Z,12.57
2022-09-30T01:01:49.856Z,12.77
2022-09-30T01:04:20.779Z,12.23
2022-09-30T01:06:48.507Z,12.67
2022-09-30T01:09:15.612Z,12.60
2022-09-30T01:11:42.396Z,12.30
2022-09-30T01:14:12.440Z,12.63
2022-09-30T01:17:03.197Z,12.77
2022-09-30T01:20:04.418Z,12.87
2022-09-30T01:22:49.110Z,12.87
2022-09-30T01:25:19.001Z,13.03
2022-09-30T01:28:24.092Z,12.90
2022-09-30T01:31:02.215Z,13.47
2022-09-30T01:33:56.416Z,13.43
2022-09-30T01:36:44.492Z,13.33
2022-09-30T01:39:36.192Z,13.67
2022-09-30T01:42:35.700Z,13.90
2022-09-30T01:45:21.750Z,12.20
2022-09-30T01:47:57.705Z,13.03
2022-09-30T01:50:33.402Z,12.83
2022-09-30T01:53:24.999Z,11.77
2022-09-30T01:56:22.518Z,12.43
2022-09-30T01:58:58.398Z,11.87
2022-09-30T02:01:39.326Z,12.20
2022-09-30T02:04:13.527Z,12.53
2022-09-30T02:06:45.195Z,11.87
2022-09-30T02:09:15.668Z,12.30
2022-09-30T02:11:43.063Z,11.67
2022-09-30T02:14:36.963Z,13.47
2022-09-30T02:17:28.984Z,12.40
2022-09-30T02:20:20.747Z,12.03
2022-09-30T02:22:50.897Z,12.57
2022-09-30T02:25:25.124Z,12.83
2022-09-30T02:27:59.180Z,13.00
2022-09-30T02:30:26.184Z,12.73
2022-09-30T02:32:59.993Z,11.83
2022-09-30T02:35:32.119Z,12.27
2022-09-30T02:38:05.853Z,11.80
2022-09-30T02:40:44.713Z,11.40
2022-09-30T02:43:11.720Z,11.87
2022-09-30T02:46:07.416Z,11.50
2022-09-30T02:48:43.285Z,12.40
2022-09-30T02:51:44.827Z,11.40
2022-09-30T02:54:46.537Z,11.20
2022-09-30T02:57:19.057Z,11.20
2022-09-30T02:59:52.151Z,11.43
2022-09-30T03:02:20.611Z,11.57
2022-09-30T03:04:49.589Z,11.33
2022-09-30T03:07:16.636Z,11.20
2022-09-30T03:09:43.705Z,11.37
2022-09-30T03:12:19.499Z,11.50
2022-09-30T03:14:49.180Z,11.20
2022-09-30T03:17:51.231Z,11.57
2022-09-30T03:20:58.892Z,11.27
2022-09-30T03:23:25.780Z,10.77
2022-09-30T03:26:07.625Z,12.17
2022-09-30T03:28:47.224Z,11.80
2022-09-30T03:31:40.748Z,12.23
2022-09-30T03:34:19.098Z,12.40
2022-09-30T03:37:08.710Z,12.67
2022-09-30T03:39:44.433Z,12.60
2022-09-30T03:42:22.104Z,12.37
2022-09-30T03:45:20.478Z,12.93
2022-09-30T03:47:53.374Z,13.07
2022-09-30T03:50:24.275Z,12.60
2022-09-30T03:52:51.561Z,11.97
2022-09-30T03:55:19.642Z,12.60
2022-09-30T03:57:46.410Z,12.20
2022-09-30T04:00:13.955Z,12.80
2022-09-30T04:02:40.869Z,13.07
2022-09-30T04:05:08.557Z,13.07
2022-09-30T04:07:36.698Z,13.73
2022-09-30T04:10:04.859Z,11.80
2022-09-30T04:12:32.158Z,12.73
2022-09-30T04:14:58.873Z,12.90
2022-09-30T04:17:25.775Z,12.30
2022-09-30T04:19:52.513Z,12.47
2022-09-30T04:22:21.249Z,11.97
2022-09-30T04:24:51.013Z,13.40
2022-09-30T04:27:17.759Z,12.97
2022-09-30T04:29:44.523Z,13.33
2022-09-30T04:32:11.359Z,13.73
2022-09-30T04:34:38.164Z,13.17
2022-09-30T04:37:09.973Z,13.77
2022-09-30T04:39:37.531Z,13.67
2022-09-30T04:42:04.296Z,13.60
2022-09-30T04:44:31.025Z,14.07
2022-09-30T04:46:57.744Z,13.40
2022-09-30T04:49:24.609Z,13.53
2022-09-30T04:51:51.444Z,13.37
2022-09-30T04:54:19.279Z,14.17
2022-09-30T04:56:46.039Z,13.37
2022-09-30T04:59:12.740Z,14.00
2022-09-30T05:01:40.433Z,15.23
2022-09-30T05:04:08.250Z,14.83
2022-09-30T05:06:35.011Z,14.57
2022-09-30T05:09:01.809Z,15.37
2022-09-30T05:11:29.466Z,14.33
2022-09-30T05:13:56.316Z,15.17
2022-09-30T05:16:23.215Z,13.90
2022-09-30T05:18:50.355Z,14.87
2022-09-30T05:21:20.840Z,13.53
2022-09-30T05:23:48.036Z,13.57
2022-09-30T05:26:15.512Z,13.73
2022-09-30T05:28:42.760Z,13.73
2022-09-30T05:31:10.025Z,13.27
2022-09-30T05:33:36.889Z,12.63
2022-09-30T05:36:06.833Z,12.60
2022-09-30T05:38:34.019Z,12.10
2022-09-30T05:41:07.849Z,12.33
2022-09-30T05:43:37.156Z,11.57
2022-09-30T05:46:03.900Z,12.00
2022-09-30T05:48:30.605Z,11.80
2022-09-30T05:51:00.944Z,11.17
2022-09-30T05:53:28.866Z,11.73
2022-09-30T05:55:56.172Z,11.10
2022-09-30T05:58:23.871Z,12.10
2022-09-30T06:00:51.020Z,11.77
2022-09-30T06:03:18.550Z,11.00
2022-09-30T06:05:45.899Z,11.43
2022-09-30T06:08:13.871Z,11.80
2022-09-30T06:10:42.269Z,12.80
2022-09-30T06:13:09.769Z,11.90
2022-09-30T06:15:38.973Z,12.30
2022-09-30T06:18:06.071Z,12.87
2022-09-30T06:20:32.970Z,12.07
2022-09-30T06:23:03.888Z,11.53
2022-09-30T06:25:31.303Z,11.97
2022-09-30T06:27:58.708Z,11.87
2022-09-30T06:30:25.861Z,11.63
2022-09-30T06:32:56.007Z,11.57
2022-09-30T06:35:24.791Z,11.37
2022-09-30T06:37:52.336Z,11.90
2022-09-30T06:40:22.899Z,10.73
2022-09-30T06:42:49.977Z,11.57
2022-09-30T06:45:31.266Z,10.73
2022-09-30T06:48:04.137Z,11.00
2022-09-30T06:50:32.338Z,10.03
2022-09-30T06:53:06.153Z,10.30
2022-09-30T06:55:36.509Z,10.37
2022-09-30T06:58:03.272Z,10.13
2022-09-30T07:00:30.395Z,9.50
2022-09-30T07:02:57.167Z,10.13
2022-09-30T07:05:25.756Z,9.73
2022-09-30T07:07:53.603Z,8.80
2022-09-30T07:10:20.812Z,8.57
2022-09-30T07:12:52.034Z,8.17
2022-09-30T07:15:23.252Z,8.27
2022-09-30T07:17:56.799Z,8.77
2022-09-30T07:20:24.054Z,7.93
2022-09-30T07:22:51.093Z,8.40
2022-09-30T07:25:18.135Z,7.33
2022-09-30T07:27:45.230Z,7.03
2022-09-30T07:30:19.232Z,8.10
2022-09-30T07:32:50.173Z,7.77
2022-09-30T07:35:17.001Z,7.20
2022-09-30T07:37:43.718Z,7.73
2022-09-30T07:40:11.037Z,8.10
2022-09-30T07:42:45.896Z,11.00
2022-09-30T07:45:17.042Z,10.10
2022-09-30T07:47:43.991Z,8.57
2022-09-30T07:50:13.317Z,8.23
2022-09-30T07:52:40.005Z,7.40
2022-09-30T07:55:07.109Z,7.43
2022-09-30T07:57:33.939Z,7.20
2022-09-30T08:00:12.026Z,6.70
2022-09-30T08:02:47.537Z,6.63
2022-09-30T08:05:14.357Z,6.17
2022-09-30T08:07:41.212Z,6.27
2022-09-30T08:10:08.394Z,5.80
2022-09-30T08:12:37.501Z,6.30
2022-09-30T08:15:06.129Z,6.50
2022-09-30T08:17:33.045Z,6.40
2022-09-30T08:19:59.865Z,6.10
2022-09-30T08:22:26.617Z,6.70
2022-09-30T08:24:53.401Z,6.13
2022-09-30T08:27:20.766Z,5.87
2022-09-30T08:29:54.851Z,5.40
2022-09-30T08:32:23.048Z,5.73
2022-09-30T08:34:49.809Z,6.13
2022-09-30T08:37:16.546Z,5.70
2022-09-30T08:39:43.760Z,7.07
2022-09-30T08:42:40.297Z,7.10
2022-09-30T08:45:32.856Z,6.37
2022-09-30T08:48:32.361Z,7.07
2022-09-30T08:51:05.479Z,7.20
2022-09-30T08:53:37.985Z,8.30
2022-09-30T08:56:06.772Z,8.90
2022-09-30T08:58:38.042Z,7.80
2022-09-30T09:01:12.174Z,9.13
2022-09-30T09:03:40.569Z,8.83
2022-09-30T09:06:50.360Z,8.83
2022-09-30T09:09:32.776Z,10.63
2022-09-30T09:12:11.792Z,10.60
2022-09-30T09:14:38.539Z,10.47
2022-09-30T09:18:11.329Z,10.00
2022-09-30T09:20:42.904Z,9.67
2022-09-30T09:23:13.077Z,9.57
2022-09-30T09:25:40.067Z,9.13
2022-09-30T09:28:23.187Z,9.10
2022-09-30T09:30:54.611Z,9.20
2022-09-30T09:33:29.820Z,9.60
2022-09-30T09:36:13.976Z,8.57
2022-09-30T09:38:52.412Z,9.10
2022-09-30T09:41:36.856Z,9.40
2022-09-30T09:44:25.527Z,8.37
2022-09-30T09:47:05.644Z,9.00
2022-09-30T09:49:42.075Z,8.57
2022-09-30T09:52:12.562Z,8.20
2022-09-30T09:54:46.301Z,8.40
2022-09-30T09:57:16.315Z,7.97
2022-09-30T10:00:29.007Z,8.80
2022-09-30T10:03:12.179Z,8.10
2022-09-30T10:05:41.573Z,7.83
2022-09-30T10:08:18.078Z,8.13
2022-09-30T10:11:03.564Z,7.80
2022-09-30T10:13:42.062Z,8.17
2022-09-30T10:16:31.023Z,8.90
2022-09-30T10:18:59.370Z,8.70
2022-09-30T10:21:28.631Z,8.73
2022-09-30T10:23:55.499Z,9.63
2022-09-30T10:26:25.280Z,8.73
2022-09-30T10:29:03.988Z,9.07
2022-09-30T10:31:38.660Z,9.67
2022-09-30T10:34:34.475Z,9.47
2022-09-30T10:37:15.977Z,8.97
2022-09-30T10:39:44.677Z,9.03
2022-09-30T10:42:27.405Z,8.70
2022-09-30T10:45:02.104Z,9.10
2022-09-30T10:47:36.397Z,9.13
2022-09-30T10:50:07.970Z,8.40
2022-09-30T10:52:48.903Z,8.93
2022-09-30T10:55:21.951Z,8.23
2022-09-30T10:57:50.243Z,9.73
2022-09-30T11:00:25.191Z,8.60
2022-09-30T11:03:06.048Z,8.87
2022-09-30T11:05:40.621Z,9.73
2022-09-30T11:08:34.863Z,9.30
2022-09-30T11:11:15.643Z,8.13
2022-09-30T11:13:48.886Z,9.03
2022-09-30T11:16:23.365Z,8.27
2022-09-30T11:19:01.955Z,8.43
2022-09-30T11:21:36.869Z,7.80
2022-09-30T11:24:14.239Z,7.57
2022-09-30T11:26:44.284Z,8.13
2022-09-30T11:29:35.489Z,7.80
2022-09-30T11:32:23.295Z,8.30
2022-09-30T11:34:56.009Z,8.43
2022-09-30T11:37:42.133Z,8.80
2022-09-30T11:40:42.731Z,8.33
2022-09-30T11:43:24.637Z,8.20
2022-09-30T11:45:57.518Z,8.07
2022-09-30T11:49:03.505Z,7.20
2022-09-30T11:51:55.399Z,8.30
2022-09-30T11:54:40.266Z,7.00
2022-09-30T11:57:24.382Z,7.40
2022-09-30T12:00:01.259Z,6.83
2022-09-30T12:02:40.346Z,6.70
2022-09-30T12:05:34.640Z,6.33
2022-09-30T12:08:16.685Z,6.27
2022-09-30T12:10:48.887Z,5.77
2022-09-30T12:13:28.001Z,6.10
2022-09-30T12:15:57.609Z,5.40
2022-09-30T12:18:30.452Z,4.80
2022-09-30T12:21:00.669Z,5.20
2022-09-30T12:23:40.603Z,5.40
2022-09-30T12:26:07.373Z,4.97
2022-09-30T12:29:03.469Z,5.00
2022-09-30T12:32:09.565Z,4.70
2022-09-30T12:34:48.460Z,5.90
2022-09-30T12:37:41.627Z,5.13
2022-09-30T12:40:56.126Z,4.97
2022-09-30T12:43:34.441Z,4.90
2022-09-30T12:46:04.462Z,4.50
2022-09-30T12:48:59.439Z,4.63
2022-09-30T12:51:33.859Z,5.10
2022-09-30T12:54:24.034Z,4.53
2022-09-30T12:56:56.597Z,4.90
2022-09-30T12:59:52.744Z,4.53
2022-09-30T13:02:31.930Z,4.13
2022-09-30T13:05:26.702Z,4.30
2022-09-30T13:08:05.788Z,4.23
2022-09-30T13:10:38.636Z,4.13
2022-09-30T13:13:11.304Z,3.37
2022-09-30T13:15:41.230Z,3.47
2022-09-30T13:18:20.259Z,3.37
2022-09-30T13:21:05.665Z,3.70
2022-09-30T13:23:47.133Z,3.83
2022-09-30T13:26:38.231Z,4.30
2022-09-30T13:29:14.197Z,3.50
2022-09-30T13:31:50.128Z,3.67
2022-09-30T13:34:22.985Z,3.43
2022-09-30T13:36:52.550Z,3.70
2022-09-30T13:39:25.458Z,2.93
2022-09-30T13:42:06.990Z,3.00
2022-09-30T13:45:13.139Z,3.00
2022-09-30T13:47:50.628Z,3.40
2022-09-30T13:50:45.494Z,2.70
2022-09-30T13:53:35.339Z,3.10
2022-09-30T13:56:08.601Z,2.60
2022-09-30T13:58:42.821Z,2.60
2022-09-30T14:01:26.258Z,2.43
2022-09-30T14:04:07.564Z,3.07
2022-09-30T14:07:01.911Z,2.83
2022-09-30T14:09:52.209Z,3.37
2022-09-30T14:12:52.298Z,2.90
2022-09-30T14:15:22.240Z,3.53
2022-09-30T14:18:23.337Z,3.20
2022-09-30T14:21:27.300Z,3.60
2022-09-30T14:24:01.014Z,3.07
2022-09-30T14:26:36.563Z,3.20
2022-09-30T14:29:23.971Z,2.93
2022-09-30T14:31:50.864Z,2.90
2022-09-30T14:34:21.300Z,3.30
2022-09-30T14:36:50.622Z,3.67
2022-09-30T14:39:26.404Z,3.30
2022-09-30T14:41:57.822Z,3.40
2022-09-30T14:44:28.053Z,3.20
2022-09-30T14:47:01.262Z,3.50
2022-09-30T14:49:35.978Z,3.80
2022-09-30T14:52:04.073Z,3.50
2022-09-30T14:54:33.035Z,3.50
2022-09-30T14:57:02.471Z,3.17
2022-09-30T14:59:33.199Z,3.60
2022-09-30T15:02:26.327Z,3.70
2022-09-30T15:05:00.354Z,3.33
2022-09-30T15:07:28.259Z,3.00
2022-09-30T15:10:01.724Z,3.33
2022-09-30T15:12:28.739Z,2.90
2022-09-30T15:14:58.054Z,3.20
2022-09-30T15:17:29.995Z,3.00
2022-09-30T15:19:58.518Z,3.10
2022-09-30T15:22:28.449Z,2.80
2022-09-30T15:24:58.117Z,2.60
2022-09-30T15:27:29.938Z,2.67
2022-09-30T15:29:59.134Z,2.50
2022-09-30T15:32:35.593Z,2.33
2022-09-30T15:35:17.555Z,2.40
2022-09-30T15:37:45.650Z,2.90
2022-09-30T15:40:36.612Z,3.10
2022-09-30T15:43:07.085Z,2.70
2022-09-30T15:45:48.962Z,3.07
2022-09-30T15:48:16.916Z,3.03
2022-09-30T15:50:49.053Z,3.40
2022-09-30T15:53:26.182Z,2.77
2022-09-30T15:56:18.928Z,3.00
2022-09-30T15:58:54.846Z,3.00
2022-09-30T16:01:51.657Z,2.93
2022-09-30T16:04:18.410Z,2.70
2022-09-30T16:06:57.335Z,2.37
2022-09-30T16:09:30.678Z,2.87
2022-09-30T16:12:06.202Z,2.60
2022-09-30T16:14:49.941Z,2.87
2022-09-30T16:17:28.637Z,3.30
2022-09-30T16:19:57.993Z,3.27
2022-09-30T16:22:37.071Z,2.43
2022-09-30T16:25:28.636Z,2.57
2022-09-30T16:28:01.562Z,2.23
2022-09-30T16:30:32.091Z,2.20
2022-09-30T16:33:03.309Z,2.63
2022-09-30T16:35:30.124Z,2.57
2022-09-30T16:38:06.656Z,2.03
2022-09-30T16:40:35.726Z,2.10
2022-09-30T16:43:07.114Z,2.53
2022-09-30T16:45:35.093Z,2.20
2022-09-30T16:48:02.438Z,2.50
2022-09-30T16:50:38.952Z,2.07
2022-09-30T16:53:05.952Z,2.10
2022-09-30T16:55:33.124Z,2.10
2022-09-30T16:58:00.317Z,2.20
2022-09-30T17:00:28.419Z,2.30
2022-09-30T17:02:55.453Z,2.50
2022-09-30T17:05:24.725Z,4.43
2022-09-30T17:07:54.389Z,5.67
2022-09-30T17:10:30.178Z,7.93
2022-09-30T17:13:00.384Z,4.20
2022-09-30T17:15:28.849Z,2.97
2022-09-30T17:17:55.667Z,3.37
2022-09-30T17:20:23.710Z,3.30
2022-09-30T17:22:51.076Z,3.47
2022-09-30T17:25:18.753Z,3.40
2022-09-30T17:27:50.081Z,3.33
2022-09-30T17:30:18.423Z,3.50
2022-09-30T17:32:45.598Z,3.70
2022-09-30T17:35:12.842Z,3.60
2022-09-30T17:37:46.245Z,3.60
2022-09-30T17:40:32.503Z,4.40
2022-09-30T17:43:08.507Z,4.13
2022-09-30T17:45:36.656Z,3.57
2022-09-30T17:48:04.978Z,3.90
2022-09-30T17:50:31.778Z,3.70
2022-09-30T17:52:58.489Z,3.93
2022-09-30T17:55:25.267Z,3.53
2022-09-30T17:57:53.687Z,4.80
2022-09-30T18:00:20.814Z,4.70
2022-09-30T18:02:48.254Z,7.10
2022-09-30T18:05:15.667Z,5.57
2022-09-30T18:07:42.449Z,4.97
2022-09-30T18:10:09.412Z,6.03
2022-09-30T18:12:36.306Z,5.53
2022-09-30T18:15:03.250Z,5.13
2022-09-30T18:17:30.269Z,6.97
2022-09-30T18:19:57.029Z,6.97
2022-09-30T18:22:23.953Z,10.20
2022-09-30T18:25:09.164Z,7.50
2022-09-30T18:27:35.923Z,6.53
2022-09-30T18:30:05.145Z,6.40
2022-09-30T18:32:32.432Z,6.13
2022-09-30T18:34:59.203Z,5.73
2022-09-30T18:37:28.583Z,6.10
2022-09-30T18:39:55.381Z,5.63
2022-09-30T18:42:22.222Z,5.63
2022-09-30T18:44:50.866Z,6.30
2022-09-30T18:47:18.742Z,5.67
2022-09-30T18:49:45.861Z,5.40
2022-09-30T18:52:12.817Z,5.10
2022-09-30T18:54:39.951Z,4.93
2022-09-30T18:57:06.792Z,4.90
2022-09-30T18:59:33.533Z,4.53
2022-09-30T19:02:00.705Z,4.00
2022-09-30T19:04:27.586Z,2.60
2022-09-30T19:06:54.326Z,2.37
2022-09-30T19:09:21.072Z,2.10
2022-09-30T19:11:49.287Z,1.60
2022-09-30T19:14:16.290Z,1.37
2022-09-30T19:16:44.015Z,1.50
2022-09-30T19:19:11.246Z,1.67
2022-09-30T19:21:39.422Z,1.40
2022-09-30T19:24:07.932Z,1.40
2022-09-30T19:26:36.933Z,1.77
2022-09-30T19:29:09.617Z,1.40
2022-09-30T19:31:37.500Z,1.37
2022-09-30T19:34:05.291Z,1.40
2022-09-30T19:36:43.890Z,1.70
2022-09-30T19:39:14.104Z,1.50
2022-09-30T19:41:41.367Z,1.50
2022-09-30T19:44:08.173Z,1.43
2022-09-30T19:46:35.175Z,1.40
2022-09-30T19:49:02.085Z,1.80
2022-09-30T19:51:30.655Z,1.40
2022-09-30T19:54:05.954Z,1.60
2022-09-30T19:56:36.292Z,1.80
2022-09-30T19:59:03.793Z,1.47
2022-09-30T20:01:31.301Z,1.90
2022-09-30T20:04:05.208Z,1.40
2022-09-30T20:06:34.425Z,1.70
2022-09-30T20:09:04.008Z,1.73
2022-09-30T20:11:33.545Z,2.07
2022-09-30T20:14:20.703Z,1.60
2022-09-30T20:16:50.544Z,1.40
2022-09-30T20:19:18.461Z,1.50
2022-09-30T20:21:46.757Z,1.50
2022-09-30T20:24:15.851Z,1.50
2022-09-30T20:26:44.230Z,1.73
2022-09-30T20:29:11.481Z,1.53
2022-09-30T20:31:41.013Z,1.60
2022-09-30T20:34:10.332Z,1.77
2022-09-30T20:36:37.110Z,2.13
2022-09-30T20:39:03.910Z,1.60
2022-09-30T20:41:35.860Z,1.80
2022-09-30T20:44:13.993Z,1.80
2022-09-30T20:46:41.725Z,1.63
2022-09-30T20:49:08.812Z,2.10
2022-09-30T20:51:36.026Z,1.70
2022-09-30T20:54:03.125Z,1.80
2022-09-30T20:56:44.417Z,1.97
2022-09-30T20:59:18.129Z,1.40
2022-09-30T21:01:45.055Z,2.00
2022-09-30T21:04:11.860Z,1.53
2022-09-30T21:06:38.608Z,1.60
2022-09-30T21:09:05.604Z,1.90
2022-09-30T21:11:33.602Z,1.90
2022-09-30T21:14:00.821Z,1.70
2022-09-30T21:16:29.496Z,1.80
2022-09-30T21:18:56.472Z,1.43
2022-09-30T21:21:24.796Z,1.60
2022-09-30T21:23:58.708Z,1.63
2022-09-30T21:26:26.553Z,1.80
2022-09-30T21:28:53.616Z,1.90
2022-09-30T21:31:24.069Z,1.70
2022-09-30T21:33:52.525Z,1.57
2022-09-30T21:36:21.074Z,1.70
2022-09-30T21:38:52.021Z,1.60
2022-09-30T21:41:20.131Z,1.70
2022-09-30T21:43:47.573Z,2.00
2022-09-30T21:46:15.672Z,1.90
2022-09-30T21:48:43.212Z,1.90
2022-09-30T21:51:10.165Z,1.63
2022-09-30T21:53:38.968Z,1.87
2022-09-30T21:56:07.385Z,2.00
2022-09-30T21:58:34.449Z,1.70
2022-09-30T22:01:04.083Z,1.90
2022-09-30T22:03:37.216Z,1.90
2022-09-30T22:06:07.144Z,1.60
2022-09-30T22:08:40.264Z,2.00
2022-09-30T22:11:09.218Z,1.77
2022-09-30T22:13:36.410Z,1.70
2022-09-30T22:16:10.008Z,1.73
2022-09-30T22:18:37.315Z,2.10
2022-09-30T22:21:07.497Z,1.90
2022-09-30T22:23:34.439Z,1.90
2022-09-30T22:26:12.226Z,1.60
2022-09-30T22:28:40.019Z,1.53
2022-09-30T22:31:20.649Z,2.00
2022-09-30T22:34:10.766Z,1.90
2022-09-30T22:36:56.302Z,1.80
2022-09-30T22:39:24.097Z,1.57
2022-09-30T22:41:53.984Z,1.80
2022-09-30T22:44:26.789Z,1.47
2022-09-30T22:46:54.397Z,1.60
2022-09-30T22:49:22.144Z,2.00
2022-09-30T22:51:53.809Z,1.70
2022-09-30T22:54:21.333Z,1.73
2022-09-30T22:56:50.306Z,1.83
2022-09-30T22:59:20.964Z,1.97
2022-09-30T23:01:49.170Z,2.13
2022-09-30T23:04:17.614Z,1.90
2022-09-30T23:06:49.461Z,2.07
2022-09-30T23:09:17.415Z,2.10
2022-09-30T23:11:46.062Z,2.10
2022-09-30T23:14:13.421Z,2.20
2022-09-30T23:16:41.063Z,2.13
2022-09-30T23:19:07.947Z,1.97
2022-09-30T23:21:35.929Z,1.90
2022-09-30T23:24:03.238Z,2.30
2022-09-30T23:26:31.194Z,1.90
2022-09-30T23:29:02.482Z,1.93
2022-09-30T23:31:29.999Z,2.20
2022-09-30T23:33:59.145Z,2.17
2022-09-30T23:36:29.734Z,2.37
2022-09-30T23:39:20.829Z,2.27
2022-09-30T23:41:48.843Z,1.90
2022-09-30T23:44:18.744Z,1.90
2022-09-30T23:47:05.027Z,2.40
2022-09-30T23:49:38.914Z,2.00
2022-09-30T23:52:10.452Z,2.10
2022-09-30T23:54:41.076Z,2.03
2022-09-30T23:57:08.350Z,2.20
2022-09-30T23:59:35.211Z,2.47
